Time;durP1;ratioP1;P1;durP2;ratioP2;P2;SDS_P1;SDS_P2;PMS_P1;PMS_P2;Temp;Humidity;BMP_temperature;BMP_pressure;BME280_temperature;BME280_humidity;BME280_pressure;Samples;Min_cycle;Max_cycle;Signal;HPM_P1;HPM_P2
2022/01/13 00:00:06;;;;;;;26.93;16.53;;;;;;;;;;5133162;27;20531;-79
2022/01/13 00:02:36;;;;;;;11.90;9.17;;;;;;;;;;5133154;27;20443;-79
2022/01/13 00:05:04;;;;;;;7.40;4.97;;;;;;;;;;5133204;27;20421;-79
2022/01/13 00:07:33;;;;;;;8.90;6.20;;;;;;;;;;5133103;27;20467;-79
2022/01/13 00:10:01;;;;;;;4.13;3.73;;;;;;;;;;5132944;27;20482;-79
2022/01/13 00:12:33;;;;;;;7.47;4.07;;;;;;;;;;5131838;27;20500;-78
2022/01/13 00:18:03;;;;;;;4.80;4.37;;;;;;;;;;5121786;27;20437;-79
2022/01/13 00:20:59;;;;;;;6.37;4.30;;;;;;;;;;5133215;27;20858;-79
2022/01/13 00:23:43;;;;;;;5.23;3.83;;;;;;;;;;5133243;27;20432;-79
2022/01/13 00:26:18;;;;;;;4.70;3.57;;;;;;;;;;5132925;27;20502;-79
2022/01/13 00:28:47;;;;;;;3.90;3.40;;;;;;;;;;5132875;27;20427;-79
2022/01/13 00:31:16;;;;;;;5.53;3.63;;;;;;;;;;5133085;27;20855;-79
2022/01/13 00:33:44;;;;;;;5.57;4.03;;;;;;;;;;5132820;27;20447;-80
2022/01/13 00:36:12;;;;;;;4.57;3.77;;;;;;;;;;5132791;27;20814;-79
2022/01/13 00:38:40;;;;;;;5.53;3.97;;;;;;;;;;5132742;27;20532;-79
2022/01/13 00:41:08;;;;;;;4.47;3.37;;;;;;;;;;5133057;27;20440;-79
2022/01/13 00:43:40;;;;;;;11.30;7.37;;;;;;;;;;5132714;27;20945;-79
2022/01/13 00:46:07;;;;;;;7.50;4.80;;;;;;;;;;5132611;27;20555;-79
2022/01/13 00:48:35;;;;;;;7.40;5.67;;;;;;;;;;5132567;27;20940;-79
2022/01/13 00:51:02;;;;;;;11.57;6.60;;;;;;;;;;5132579;27;20528;-79
2022/01/13 00:53:29;;;;;;;9.80;5.97;;;;;;;;;;5132514;27;20441;-79
2022/01/13 00:56:01;;;;;;;8.17;5.87;;;;;;;;;;5134489;27;20444;-79
2022/01/13 00:58:30;;;;;;;4.23;3.77;;;;;;;;;;5136545;27;20424;-79
2022/01/13 01:00:58;;;;;;;6.60;4.83;;;;;;;;;;5136628;27;20436;-78
2022/01/13 01:03:26;;;;;;;9.57;5.80;;;;;;;;;;5136475;27;20978;-79
2022/01/13 01:05:53;;;;;;;7.57;6.00;;;;;;;;;;5136466;27;20535;-78
2022/01/13 01:08:21;;;;;;;7.77;5.13;;;;;;;;;;5136401;27;20459;-78
2022/01/13 01:10:52;;;;;;;6.60;4.70;;;;;;;;;;5136327;27;21070;-78
2022/01/13 01:13:26;;;;;;;5.53;4.33;;;;;;;;;;5136327;27;20564;-79
2022/01/13 01:15:55;;;;;;;7.23;4.57;;;;;;;;;;5136573;27;20433;-78
2022/01/13 01:18:31;;;;;;;6.20;4.43;;;;;;;;;;5136234;27;20436;-78
2022/01/13 01:21:20;;;;;;;7.30;5.03;;;;;;;;;;5136664;27;20424;-78
2022/01/13 01:24:11;;;;;;;5.27;3.83;;;;;;;;;;5136538;27;20597;-79
2022/01/13 01:26:42;;;;;;;6.43;4.30;;;;;;;;;;5136690;27;20558;-79
2022/01/13 01:29:20;;;;;;;6.87;4.00;;;;;;;;;;5135981;27;20428;-79
2022/01/13 01:31:49;;;;;;;4.70;3.93;;;;;;;;;;5136095;27;20829;-79
2022/01/13 01:34:29;;;;;;;5.53;4.00;;;;;;;;;;5135938;27;20447;-78
2022/01/13 01:36:57;;;;;;;5.47;4.37;;;;;;;;;;5135920;27;20428;-79
2022/01/13 01:39:24;;;;;;;6.77;4.40;;;;;;;;;;5136142;27;20433;-79
2022/01/13 01:41:53;;;;;;;3.97;3.57;;;;;;;;;;5136068;27;20527;-79
2022/01/13 01:44:28;;;;;;;4.83;4.20;;;;;;;;;;5136112;27;20472;-79
2022/01/13 01:46:55;;;;;;;5.60;3.83;;;;;;;;;;5135573;27;20553;-79
2022/01/13 01:49:25;;;;;;;4.40;3.63;;;;;;;;;;5135604;27;20940;-78
2022/01/13 01:51:54;;;;;;;4.27;3.60;;;;;;;;;;5135580;27;20493;-78
2022/01/13 01:54:22;;;;;;;5.40;4.30;;;;;;;;;;5135611;27;20475;-79
2022/01/13 01:56:49;;;;;;;5.77;4.33;;;;;;;;;;5135517;27;20973;-79
2022/01/13 01:59:20;;;;;;;6.80;4.30;;;;;;;;;;5135495;27;20869;-79
2022/01/13 02:01:50;;;;;;;4.60;4.07;;;;;;;;;;5135757;27;20505;-79
2022/01/13 02:04:21;;;;;;;4.20;3.50;;;;;;;;;;5135369;27;20444;-79
2022/01/13 02:06:48;;;;;;;5.70;4.40;;;;;;;;;;5135567;27;20435;-79
2022/01/13 02:09:17;;;;;;;6.33;4.27;;;;;;;;;;5135198;27;20442;-79
2022/01/13 02:11:49;;;;;;;5.03;3.73;;;;;;;;;;5135137;27;20444;-79
2022/01/13 02:14:32;;;;;;;9.83;6.23;;;;;;;;;;5135367;27;20444;-78
2022/01/13 02:17:06;;;;;;;63.67;31.50;;;;;;;;;;5135322;27;20724;-79
2022/01/13 02:19:34;;;;;;;13.67;8.97;;;;;;;;;;5135135;27;20456;-79
2022/01/13 02:22:03;;;;;;;6.23;4.93;;;;;;;;;;5134974;27;20951;-79
2022/01/13 02:24:31;;;;;;;15.47;9.03;;;;;;;;;;5135048;27;20963;-78
2022/01/13 02:26:58;;;;;;;7.60;5.73;;;;;;;;;;5134986;27;20983;-79
2022/01/13 02:29:26;;;;;;;7.57;5.27;;;;;;;;;;5134920;27;20445;-78
2022/01/13 02:31:53;;;;;;;44.60;22.97;;;;;;;;;;5134819;27;20444;-78
2022/01/13 02:34:21;;;;;;;15.97;10.13;;;;;;;;;;5134876;27;20440;-78
2022/01/13 02:36:50;;;;;;;15.30;8.57;;;;;;;;;;5134773;27;20483;-78
2022/01/13 02:39:21;;;;;;;30.60;17.33;;;;;;;;;;5134719;27;20454;-78
2022/01/13 02:41:48;;;;;;;22.43;13.43;;;;;;;;;;5134695;27;20523;-78
2022/01/13 02:44:19;;;;;;;25.57;16.70;;;;;;;;;;5134622;27;20479;-78
2022/01/13 02:49:32;;;;;;;16.27;10.40;;;;;;;;;;5134802;27;20450;-78
2022/01/13 02:51:59;;;;;;;16.00;12.33;;;;;;;;;;5134425;27;20948;-79
2022/01/13 02:54:28;;;;;;;6.20;5.23;;;;;;;;;;5134401;27;20436;-79
2022/01/13 02:56:56;;;;;;;9.93;6.60;;;;;;;;;;5134660;27;20444;-79
2022/01/13 02:59:23;;;;;;;9.43;6.23;;;;;;;;;;5134266;27;20521;-78
2022/01/13 03:01:50;;;;;;;4.47;4.03;;;;;;;;;;5134356;27;20519;-78
2022/01/13 03:04:18;;;;;;;6.00;3.77;;;;;;;;;;5134635;27;20468;-78
2022/01/13 03:06:45;;;;;;;3.80;3.40;;;;;;;;;;5134421;27;20562;-78
2022/01/13 03:09:14;;;;;;;4.57;3.47;;;;;;;;;;5134500;27;20516;-78
2022/01/13 03:11:44;;;;;;;4.93;3.80;;;;;;;;;;5134057;27;20479;-79
2022/01/13 03:14:12;;;;;;;5.23;3.77;;;;;;;;;;5134629;27;20477;-78
2022/01/13 03:16:40;;;;;;;4.10;3.53;;;;;;;;;;5134277;27;20523;-78
2022/01/13 03:19:08;;;;;;;7.50;3.90;;;;;;;;;;5133502;27;20455;-78
2022/01/13 03:21:35;;;;;;;4.47;3.43;;;;;;;;;;5133870;27;20428;-78
2022/01/13 03:24:06;;;;;;;5.10;3.90;;;;;;;;;;5133817;27;20444;-79
2022/01/13 03:26:34;;;;;;;5.47;4.33;;;;;;;;;;5134149;27;21004;-79
2022/01/13 03:29:15;;;;;;;4.73;4.27;;;;;;;;;;5133759;27;20515;-79
2022/01/13 03:31:44;;;;;;;5.47;4.80;;;;;;;;;;5133937;27;20466;-79
2022/01/13 03:34:13;;;;;;;6.83;6.03;;;;;;;;;;5133678;27;20444;-79
2022/01/13 03:36:41;;;;;;;7.43;6.50;;;;;;;;;;5133585;27;20473;-79
2022/01/13 03:39:09;;;;;;;7.63;6.50;;;;;;;;;;5133568;27;20435;-79
2022/01/13 03:41:37;;;;;;;7.77;6.03;;;;;;;;;;5133750;27;20485;-79
2022/01/13 03:44:15;;;;;;;6.93;4.77;;;;;;;;;;5133493;27;20531;-79
2022/01/13 03:46:43;;;;;;;6.13;4.87;;;;;;;;;;5133237;27;20491;-78
2022/01/13 03:49:10;;;;;;;7.93;4.03;;;;;;;;;;5133405;27;20440;-79
2022/01/13 03:52:27;;;;;;;4.43;3.17;;;;;;;;;;5133559;27;20527;-79
2022/01/13 03:55:38;;;;;;;5.87;4.47;;;;;;;;;;5133132;27;20438;-80
2022/01/13 03:58:53;;;;;;;4.93;4.10;;;;;;;;;;5133235;27;20436;-79
2022/01/13 04:01:52;;;;;;;6.63;4.20;;;;;;;;;;5125868;27;20465;-80
2022/01/13 04:04:21;;;;;;;8.17;4.63;;;;;;;;;;5112439;28;20438;-79
2022/01/13 04:06:48;;;;;;;11.77;8.00;;;;;;;;;;5112381;28;20465;-78
2022/01/13 04:09:37;;;;;;;17.93;12.33;;;;;;;;;;5112577;28;20478;-79
2022/01/13 04:12:07;;;;;;;12.63;7.37;;;;;;;;;;5111000;28;21004;-80
2022/01/13 04:14:44;;;;;;;9.60;6.37;;;;;;;;;;5111636;28;20463;-79
2022/01/13 04:17:12;;;;;;;11.00;7.63;;;;;;;;;;5111652;28;20434;-78
2022/01/13 04:19:42;;;;;;;13.43;7.93;;;;;;;;;;5111299;28;20494;-79
2022/01/13 04:22:10;;;;;;;10.97;6.47;;;;;;;;;;5111535;28;20447;-79
2022/01/13 04:24:38;;;;;;;10.90;7.10;;;;;;;;;;5111396;28;20484;-80
2022/01/13 04:27:07;;;;;;;12.10;7.20;;;;;;;;;;5111079;28;20800;-79
2022/01/13 04:29:37;;;;;;;8.20;5.93;;;;;;;;;;5111189;28;20540;-78
2022/01/13 04:32:05;;;;;;;6.17;5.07;;;;;;;;;;5115303;28;20483;-79
2022/01/13 04:34:33;;;;;;;6.13;4.77;;;;;;;;;;5115314;28;20447;-80
2022/01/13 04:37:02;;;;;;;6.50;4.10;;;;;;;;;;5115017;28;20524;-80
2022/01/13 04:39:31;;;;;;;6.83;4.70;;;;;;;;;;5115398;28;20448;-79
2022/01/13 04:41:58;;;;;;;5.43;4.10;;;;;;;;;;5115249;28;20966;-80
2022/01/13 04:44:27;;;;;;;5.27;4.33;;;;;;;;;;5115277;28;20433;-80
2022/01/13 04:46:55;;;;;;;4.03;3.43;;;;;;;;;;5114988;28;20899;-80
2022/01/13 04:49:23;;;;;;;5.37;4.13;;;;;;;;;;5115216;28;20457;-79
2022/01/13 04:51:51;;;;;;;5.90;3.80;;;;;;;;;;5114559;28;20533;-79
2022/01/13 04:54:20;;;;;;;5.87;4.10;;;;;;;;;;5114953;28;21036;-79
2022/01/13 04:57:05;;;;;;;3.47;3.17;;;;;;;;;;5114961;28;21198;-79
2022/01/13 04:59:33;;;;;;;4.10;2.97;;;;;;;;;;5115205;28;20437;-79
2022/01/13 05:02:01;;;;;;;4.57;4.17;;;;;;;;;;5115368;28;20532;-79
2022/01/13 05:04:28;;;;;;;3.87;3.47;;;;;;;;;;5114749;28;20440;-79
2022/01/13 05:06:55;;;;;;;23.03;12.33;;;;;;;;;;5114728;28;20872;-79
2022/01/13 05:09:24;;;;;;;4.03;3.63;;;;;;;;;;5115022;28;20535;-79
2022/01/13 05:11:52;;;;;;;4.00;3.33;;;;;;;;;;5114511;28;20564;-79
2022/01/13 05:14:19;;;;;;;4.57;4.17;;;;;;;;;;5114682;28;20437;-79
2022/01/13 05:16:57;;;;;;;5.20;3.97;;;;;;;;;;5114162;28;20506;-79
2022/01/13 05:19:29;;;;;;;4.17;3.77;;;;;;;;;;5114735;28;20433;-79
2022/01/13 05:22:15;;;;;;;4.60;3.93;;;;;;;;;;5114783;28;20426;-80
2022/01/13 05:24:46;;;;;;;5.27;4.13;;;;;;;;;;5115919;28;20900;-79
2022/01/13 05:27:14;;;;;;;17.17;8.77;;;;;;;;;;5115470;28;20444;-79
2022/01/13 05:29:41;;;;;;;12.03;7.20;;;;;;;;;;5115321;28;20445;-79
2022/01/13 05:32:08;;;;;;;7.07;5.20;;;;;;;;;;5115236;28;20472;-79
2022/01/13 05:34:36;;;;;;;9.83;6.47;;;;;;;;;;5115209;28;20449;-79
2022/01/13 05:37:03;;;;;;;7.23;5.27;;;;;;;;;;5115323;28;20441;-79
2022/01/13 05:39:31;;;;;;;7.77;5.23;;;;;;;;;;5115302;28;20901;-78
2022/01/13 05:41:59;;;;;;;8.40;6.57;;;;;;;;;;5115100;28;20463;-79
2022/01/13 05:44:27;;;;;;;7.67;6.17;;;;;;;;;;5115277;28;20441;-79
2022/01/13 05:46:54;;;;;;;5.57;4.87;;;;;;;;;;5115093;28;20520;-79
2022/01/13 05:49:21;;;;;;;10.33;5.33;;;;;;;;;;5115518;28;20524;-79
2022/01/13 05:51:49;;;;;;;11.90;7.97;;;;;;;;;;5115375;28;20855;-79
2022/01/13 05:54:16;;;;;;;10.90;8.73;;;;;;;;;;5115376;28;20502;-79
2022/01/13 05:56:43;;;;;;;7.87;6.00;;;;;;;;;;5115014;28;20488;-79
2022/01/13 05:59:12;;;;;;;5.10;4.17;;;;;;;;;;5115301;28;20449;-78
2022/01/13 06:01:40;;;;;;;6.10;4.67;;;;;;;;;;5113680;28;21011;-79
2022/01/13 06:04:07;;;;;;;8.73;5.00;;;;;;;;;;5114880;28;20429;-79
2022/01/13 06:06:34;;;;;;;6.17;4.27;;;;;;;;;;5114876;28;20988;-79
2022/01/13 06:09:02;;;;;;;5.83;4.47;;;;;;;;;;5115197;28;20468;-79
2022/01/13 06:11:37;;;;;;;7.13;5.40;;;;;;;;;;5114970;28;20480;-79
2022/01/13 06:14:05;;;;;;;9.33;5.13;;;;;;;;;;5115467;28;20432;-79
2022/01/13 06:16:35;;;;;;;5.73;4.47;;;;;;;;;;5114686;28;20533;-80
2022/01/13 06:19:02;;;;;;;6.93;4.47;;;;;;;;;;5114598;28;20498;-79
2022/01/13 06:21:30;;;;;;;8.30;5.07;;;;;;;;;;5114874;28;20819;-79
2022/01/13 06:23:57;;;;;;;7.97;5.60;;;;;;;;;;5114751;28;20469;-79
2022/01/13 06:26:25;;;;;;;7.93;4.73;;;;;;;;;;5114583;28;20494;-79
2022/01/13 06:28:52;;;;;;;7.33;5.70;;;;;;;;;;5114714;28;20450;-79
2022/01/13 06:31:19;;;;;;;9.73;7.57;;;;;;;;;;5114658;28;20563;-79
2022/01/13 06:33:48;;;;;;;8.00;5.57;;;;;;;;;;5114324;28;20521;-79
2022/01/13 06:36:16;;;;;;;10.20;7.20;;;;;;;;;;5114296;28;20532;-79
2022/01/13 06:38:43;;;;;;;11.07;8.30;;;;;;;;;;5114675;28;20448;-79
2022/01/13 06:41:11;;;;;;;11.27;8.13;;;;;;;;;;5114105;28;20938;-79
2022/01/13 06:43:38;;;;;;;9.27;8.33;;;;;;;;;;5114338;28;20500;-79
2022/01/13 06:46:06;;;;;;;7.50;6.00;;;;;;;;;;5113984;28;20476;-79
2022/01/13 06:48:33;;;;;;;8.87;6.77;;;;;;;;;;5113944;28;20444;-79
2022/01/13 06:51:02;;;;;;;7.93;6.23;;;;;;;;;;5114107;28;20477;-79
2022/01/13 06:53:29;;;;;;;8.20;6.07;;;;;;;;;;5113007;28;20437;-79
2022/01/13 06:55:57;;;;;;;10.70;6.70;;;;;;;;;;5114160;28;20503;-79
2022/01/13 06:58:24;;;;;;;12.13;8.00;;;;;;;;;;5113978;28;20484;-79
2022/01/13 07:00:51;;;;;;;14.53;8.63;;;;;;;;;;5114022;28;20533;-79
2022/01/13 07:03:20;;;;;;;15.10;9.20;;;;;;;;;;5113996;28;20445;-80
2022/01/13 07:05:48;;;;;;;11.30;8.27;;;;;;;;;;5113652;28;20528;-79
2022/01/13 07:08:16;;;;;;;16.73;11.33;;;;;;;;;;5113792;28;20541;-80
2022/01/13 07:10:45;;;;;;;10.53;7.50;;;;;;;;;;5113837;28;20442;-80
2022/01/13 07:13:13;;;;;;;12.70;7.97;;;;;;;;;;5113384;28;20477;-80
2022/01/13 07:15:40;;;;;;;10.43;6.87;;;;;;;;;;5113879;28;20448;-80
2022/01/13 07:18:07;;;;;;;13.00;6.63;;;;;;;;;;5113428;28;20445;-80
2022/01/13 07:20:35;;;;;;;9.13;6.23;;;;;;;;;;5113528;28;20449;-80
2022/01/13 07:23:03;;;;;;;10.30;6.03;;;;;;;;;;5111663;28;20438;-80
2022/01/13 07:25:31;;;;;;;8.93;7.37;;;;;;;;;;5112392;28;20953;-80
2022/01/13 07:27:59;;;;;;;6.53;5.10;;;;;;;;;;5113128;28;20441;-80
2022/01/13 07:30:27;;;;;;;11.37;6.53;;;;;;;;;;5113133;28;20434;-81
2022/01/13 07:32:54;;;;;;;10.33;6.10;;;;;;;;;;5113350;28;20555;-81
2022/01/13 07:35:22;;;;;;;11.37;8.27;;;;;;;;;;5113054;28;20532;-81
2022/01/13 07:37:49;;;;;;;10.93;7.60;;;;;;;;;;5113047;28;20437;-81
2022/01/13 07:40:17;;;;;;;8.20;6.13;;;;;;;;;;5112947;28;20441;-82
2022/01/13 07:42:46;;;;;;;7.67;6.30;;;;;;;;;;5112847;28;20441;-82
2022/01/13 07:45:15;;;;;;;11.23;7.10;;;;;;;;;;5112519;28;20520;-82
2022/01/13 07:47:43;;;;;;;16.17;10.27;;;;;;;;;;5113330;28;20502;-82
2022/01/13 07:50:13;;;;;;;17.60;11.60;;;;;;;;;;5112827;28;20449;-82
2022/01/13 07:52:41;;;;;;;27.97;13.20;;;;;;;;;;5112947;28;21065;-83
2022/01/13 07:55:09;;;;;;;10.37;7.00;;;;;;;;;;5113099;28;20463;-82
2022/01/13 07:57:37;;;;;;;16.03;10.00;;;;;;;;;;5112765;28;20434;-83
2022/01/13 08:00:09;;;;;;;9.37;8.30;;;;;;;;;;5113266;28;20874;-83
2022/01/13 08:02:36;;;;;;;9.70;6.60;;;;;;;;;;5112745;28;20906;-84
2022/01/13 08:05:05;;;;;;;10.13;7.37;;;;;;;;;;5112616;28;20668;-84
2022/01/13 08:07:32;;;;;;;7.77;5.80;;;;;;;;;;5112612;28;20231;-84
2022/01/13 08:10:00;;;;;;;12.23;6.70;;;;;;;;;;5112631;28;20242;-84
2022/01/13 08:12:27;;;;;;;8.43;6.03;;;;;;;;;;5112476;28;20284;-84
2022/01/13 08:14:55;;;;;;;9.50;7.80;;;;;;;;;;5112818;28;20211;-84
2022/01/13 08:20:23;;;;;;;11.40;8.00;;;;;;;;;;5050048;28;20198;-84
2022/01/13 08:22:50;;;;;;;7.67;6.73;;;;;;;;;;5049823;28;20257;-84
2022/01/13 08:25:18;;;;;;;9.87;6.47;;;;;;;;;;5077545;28;20225;-85
2022/01/13 08:27:45;;;;;;;11.10;7.17;;;;;;;;;;5112594;28;20683;-85
2022/01/13 08:30:13;;;;;;;8.70;6.23;;;;;;;;;;5112771;28;20221;-85
2022/01/13 08:32:42;;;;;;;8.33;6.57;;;;;;;;;;5112387;28;20211;-85
2022/01/13 08:35:10;;;;;;;8.90;6.57;;;;;;;;;;5112416;28;20202;-85
2022/01/13 08:37:38;;;;;;;10.57;6.73;;;;;;;;;;5112400;28;20191;-85
2022/01/13 08:40:09;;;;;;;9.90;6.97;;;;;;;;;;5112369;28;20205;-85
2022/01/13 08:42:36;;;;;;;10.83;8.37;;;;;;;;;;5112374;28;20662;-84
2022/01/13 08:45:06;;;;;;;8.90;6.63;;;;;;;;;;5112092;28;20315;-84
2022/01/13 08:47:34;;;;;;;7.60;6.53;;;;;;;;;;5112404;28;20184;-85
2022/01/13 08:50:03;;;;;;;8.83;7.20;;;;;;;;;;5112206;28;20290;-85
2022/01/13 08:52:31;;;;;;;7.83;6.10;;;;;;;;;;5112257;28;20223;-85
2022/01/13 08:54:59;;;;;;;7.80;6.17;;;;;;;;;;5112470;28;20632;-85
2022/01/13 08:57:27;;;;;;;9.03;5.53;;;;;;;;;;5112199;28;20192;-85
2022/01/13 08:59:54;;;;;;;9.13;5.90;;;;;;;;;;5112164;28;20287;-85
2022/01/13 09:02:21;;;;;;;9.20;6.53;;;;;;;;;;5112402;28;20292;-85
2022/01/13 09:04:50;;;;;;;6.97;5.83;;;;;;;;;;5112087;28;20195;-85
2022/01/13 09:07:19;;;;;;;8.43;6.27;;;;;;;;;;5112411;28;20199;-85
2022/01/13 09:09:46;;;;;;;6.67;5.23;;;;;;;;;;5112393;28;20205;-85
2022/01/13 09:12:13;;;;;;;5.97;5.37;;;;;;;;;;5112030;28;20223;-85
2022/01/13 09:14:42;;;;;;;6.67;5.43;;;;;;;;;;5112329;28;20227;-85
2022/01/13 09:17:19;;;;;;;9.33;5.47;;;;;;;;;;5114028;28;20196;-85
2022/01/13 09:19:46;;;;;;;6.33;5.40;;;;;;;;;;5115954;28;20222;-85
2022/01/13 09:22:14;;;;;;;6.40;4.57;;;;;;;;;;5116093;28;20223;-85
2022/01/13 09:24:42;;;;;;;6.53;4.97;;;;;;;;;;5115981;28;20188;-85
2022/01/13 09:27:10;;;;;;;9.77;5.80;;;;;;;;;;5115634;28;20668;-85
2022/01/13 09:29:37;;;;;;;7.40;5.70;;;;;;;;;;5115620;28;20233;-85
2022/01/13 09:32:05;;;;;;;7.90;5.80;;;;;;;;;;5115527;28;20219;-85
2022/01/13 09:34:33;;;;;;;8.57;6.33;;;;;;;;;;5115853;28;20270;-85
2022/01/13 09:37:00;;;;;;;9.23;5.87;;;;;;;;;;5115533;28;20553;-85
2022/01/13 09:39:28;;;;;;;6.70;5.80;;;;;;;;;;5115561;28;20211;-85
2022/01/13 09:41:57;;;;;;;8.27;6.03;;;;;;;;;;5115691;28;20556;-85
2022/01/13 09:44:28;;;;;;;7.83;6.30;;;;;;;;;;5115415;28;20195;-85
2022/01/13 09:46:55;;;;;;;11.13;9.63;;;;;;;;;;5115418;28;20231;-85
2022/01/13 09:49:23;;;;;;;9.83;8.83;;;;;;;;;;5115788;28;20278;-85
2022/01/13 09:51:50;;;;;;;9.83;7.37;;;;;;;;;;5115076;28;20196;-85
2022/01/13 09:54:18;;;;;;;9.90;7.20;;;;;;;;;;5115423;28;20659;-85
2022/01/13 09:56:45;;;;;;;7.47;6.23;;;;;;;;;;5115097;28;20286;-85
2022/01/13 09:59:15;;;;;;;9.60;7.17;;;;;;;;;;5115101;28;20195;-85
2022/01/13 10:01:42;;;;;;;9.50;6.87;;;;;;;;;;5114974;28;20255;-85
2022/01/13 10:04:10;;;;;;;6.23;5.30;;;;;;;;;;5115053;28;20239;-85
2022/01/13 10:06:48;;;;;;;7.50;5.43;;;;;;;;;;5114997;28;20210;-85
2022/01/13 10:09:16;;;;;;;7.13;6.43;;;;;;;;;;5114918;28;20776;-85
2022/01/13 10:11:53;;;;;;;7.77;6.13;;;;;;;;;;5115381;28;20196;-85
2022/01/13 10:17:15;;;;;;;10.57;6.20;;;;;;;;;;5115075;28;20175;-85
2022/01/13 10:19:44;;;;;;;11.70;7.00;;;;;;;;;;5114724;28;20227;-85
2022/01/13 10:22:13;;;;;;;18.53;12.07;;;;;;;;;;5114631;28;20191;-86
2022/01/13 10:24:42;;;;;;;8.63;7.13;;;;;;;;;;5114608;28;20196;-85
2022/01/13 10:27:11;;;;;;;6.53;5.00;;;;;;;;;;5114184;28;20192;-85
2022/01/13 10:29:46;;;;;;;6.27;5.67;;;;;;;;;;5113676;28;20192;-86
2022/01/13 10:32:15;;;;;;;8.93;6.00;;;;;;;;;;5114403;28;20233;-85
2022/01/13 10:34:44;;;;;;;8.30;5.67;;;;;;;;;;5114704;28;20576;-85
2022/01/13 10:37:14;;;;;;;8.23;7.43;;;;;;;;;;5114647;28;20195;-85
2022/01/13 10:39:54;;;;;;;8.40;5.93;;;;;;;;;;5114853;28;20192;-85
2022/01/13 10:45:30;;;;;;;7.80;5.87;;;;;;;;;;5114146;28;20239;-85
2022/01/13 10:47:59;;;;;;;7.80;5.83;;;;;;;;;;5114196;28;20187;-85
2022/01/13 10:50:31;;;;;;;6.17;5.53;;;;;;;;;;5114462;28;20620;-86
2022/01/13 10:53:04;;;;;;;6.80;5.13;;;;;;;;;;5113962;28;20696;-86
2022/01/13 10:55:34;;;;;;;8.17;6.07;;;;;;;;;;5114006;28;20192;-86
2022/01/13 10:58:01;;;;;;;7.90;5.70;;;;;;;;;;5114162;28;20195;-86
2022/01/13 11:00:32;;;;;;;6.47;5.30;;;;;;;;;;5113986;28;20204;-86
2022/01/13 11:03:03;;;;;;;6.30;5.13;;;;;;;;;;5114403;28;20218;-86
2022/01/13 11:05:32;;;;;;;7.37;6.13;;;;;;;;;;5113855;28;20184;-86
2022/01/13 11:08:02;;;;;;;7.30;6.47;;;;;;;;;;5114113;28;20282;-85
2022/01/13 11:10:29;;;;;;;13.80;11.20;;;;;;;;;;5114060;28;20253;-85
2022/01/13 11:12:58;;;;;;;7.83;6.50;;;;;;;;;;5113929;28;20251;-85
2022/01/13 11:15:27;;;;;;;7.67;5.77;;;;;;;;;;5113864;28;20196;-85
2022/01/13 11:18:01;;;;;;;13.10;9.60;;;;;;;;;;5113573;28;20231;-85
2022/01/13 11:20:29;;;;;;;9.67;7.20;;;;;;;;;;5113552;28;20244;-85
2022/01/13 11:22:58;;;;;;;6.27;5.37;;;;;;;;;;5113632;28;20191;-85
2022/01/13 11:25:27;;;;;;;7.10;6.17;;;;;;;;;;5113398;28;20652;-86
2022/01/13 11:27:57;;;;;;;5.67;4.67;;;;;;;;;;5113649;28;20204;-86
2022/01/13 11:30:27;;;;;;;6.97;5.00;;;;;;;;;;5113706;28;20571;-85
2022/01/13 11:32:57;;;;;;;6.77;6.07;;;;;;;;;;5113295;28;20230;-86
2022/01/13 11:35:27;;;;;;;5.90;5.30;;;;;;;;;;5113787;28;20233;-86
2022/01/13 11:37:56;;;;;;;5.90;5.30;;;;;;;;;;5113310;28;20184;-86
2022/01/13 11:40:39;;;;;;;9.53;6.97;;;;;;;;;;5112711;28;20192;-86
2022/01/13 11:43:10;;;;;;;9.37;7.33;;;;;;;;;;5111728;28;20199;-86
2022/01/13 11:45:41;;;;;;;7.60;6.03;;;;;;;;;;5112937;28;20243;-86
2022/01/13 11:48:16;;;;;;;7.67;6.13;;;;;;;;;;5113234;28;20660;-87
2022/01/13 11:50:47;;;;;;;7.37;5.10;;;;;;;;;;5113039;28;20183;-86
2022/01/13 11:53:26;;;;;;;8.00;7.03;;;;;;;;;;5112944;28;20207;-86
2022/01/13 11:55:59;;;;;;;15.60;10.30;;;;;;;;;;5112918;28;20644;-86
2022/01/13 11:58:31;;;;;;;9.97;7.73;;;;;;;;;;5113006;28;20187;-86
2022/01/13 12:01:11;;;;;;;8.73;6.40;;;;;;;;;;5112890;28;20186;-86
2022/01/13 12:03:41;;;;;;;9.33;5.93;;;;;;;;;;5112934;28;20184;-86
2022/01/13 12:06:09;;;;;;;7.23;6.40;;;;;;;;;;5113037;28;20568;-87
2022/01/13 12:08:42;;;;;;;5.47;4.93;;;;;;;;;;5113073;28;20229;-86
2022/01/13 12:11:11;;;;;;;6.57;5.93;;;;;;;;;;5112836;28;20244;-86
2022/01/13 12:13:49;;;;;;;6.60;5.60;;;;;;;;;;5112670;28;20772;-86
2022/01/13 12:16:17;;;;;;;8.40;6.13;;;;;;;;;;5112979;28;20634;-86
2022/01/13 12:19:08;;;;;;;9.83;8.17;;;;;;;;;;5112878;28;20225;-86
2022/01/13 12:21:40;;;;;;;7.00;6.30;;;;;;;;;;5112682;28;20190;-86
2022/01/13 12:24:08;;;;;;;9.67;8.20;;;;;;;;;;5112829;28;20208;-87
2022/01/13 12:26:49;;;;;;;13.03;7.87;;;;;;;;;;5112803;28;20199;-86
2022/01/13 12:29:19;;;;;;;8.17;7.00;;;;;;;;;;5112500;28;20183;-86
2022/01/13 12:31:54;;;;;;;8.90;7.33;;;;;;;;;;5112543;28;20195;-87
2022/01/13 12:34:43;;;;;;;7.33;6.20;;;;;;;;;;5112858;28;20231;-87
2022/01/13 12:37:25;;;;;;;7.27;6.40;;;;;;;;;;5112531;28;20182;-86
2022/01/13 12:39:58;;;;;;;7.13;6.17;;;;;;;;;;5112473;28;20183;-85
2022/01/13 12:42:33;;;;;;;9.77;6.70;;;;;;;;;;5112433;28;20183;-86
2022/01/13 12:47:46;;;;;;;7.50;5.13;;;;;;;;;;5112920;28;20582;-86
2022/01/13 12:50:20;;;;;;;6.70;5.57;;;;;;;;;;5112383;28;20206;-87
2022/01/13 12:52:47;;;;;;;5.70;4.57;;;;;;;;;;5115889;28;20187;-86
2022/01/13 12:55:15;;;;;;;8.23;6.23;;;;;;;;;;5116683;28;20199;-87
2022/01/13 12:57:48;;;;;;;7.43;5.33;;;;;;;;;;5116671;28;20191;-87
2022/01/13 13:00:17;;;;;;;8.10;5.50;;;;;;;;;;5116674;28;20550;-86
2022/01/13 13:02:55;;;;;;;6.53;5.30;;;;;;;;;;5116432;28;20598;-87
2022/01/13 13:05:35;;;;;;;7.80;6.00;;;;;;;;;;5116255;28;20266;-87
2022/01/13 13:08:03;;;;;;;7.60;6.23;;;;;;;;;;5116344;28;20187;-87
2022/01/13 13:10:31;;;;;;;8.17;6.57;;;;;;;;;;5116107;28;20203;-87
2022/01/13 13:13:00;;;;;;;10.70;7.97;;;;;;;;;;5116076;28;20248;-86
2022/01/13 13:15:42;;;;;;;9.00;6.40;;;;;;;;;;5116094;28;20231;-86
2022/01/13 13:18:10;;;;;;;6.33;5.27;;;;;;;;;;5116121;28;20262;-86
2022/01/13 13:20:40;;;;;;;12.47;8.90;;;;;;;;;;5115995;28;20206;-86
2022/01/13 13:23:10;;;;;;;11.07;8.00;;;;;;;;;;5115914;28;20191;-87
2022/01/13 13:25:41;;;;;;;9.97;7.00;;;;;;;;;;5115909;28;20371;-87
2022/01/13 13:28:22;;;;;;;8.30;6.57;;;;;;;;;;5115867;28;20633;-87
2022/01/13 13:30:51;;;;;;;7.77;5.53;;;;;;;;;;5116019;28;20196;-87
2022/01/13 13:33:19;;;;;;;10.63;7.70;;;;;;;;;;5115967;28;20226;-86
2022/01/13 13:35:48;;;;;;;7.57;6.60;;;;;;;;;;5116053;28;20225;-87
2022/01/13 13:38:15;;;;;;;6.50;5.40;;;;;;;;;;5115860;28;20684;-86
2022/01/13 13:40:44;;;;;;;6.50;5.80;;;;;;;;;;5115821;28;20196;-87
2022/01/13 13:43:12;;;;;;;6.17;5.27;;;;;;;;;;5115858;28;20225;-87
2022/01/13 13:45:40;;;;;;;5.20;4.70;;;;;;;;;;5115347;28;20230;-86
2022/01/13 13:48:08;;;;;;;7.43;6.67;;;;;;;;;;5115321;28;20250;-86
2022/01/13 13:50:35;;;;;;;6.60;5.67;;;;;;;;;;5115663;28;20203;-87
2022/01/13 13:53:09;;;;;;;6.60;5.90;;;;;;;;;;5115609;28;20252;-87
2022/01/13 13:55:37;;;;;;;7.73;6.40;;;;;;;;;;5115388;28;20187;-86
2022/01/13 13:58:07;;;;;;;7.50;6.63;;;;;;;;;;5115325;28;20206;-87
2022/01/13 14:00:34;;;;;;;7.83;6.90;;;;;;;;;;5115303;28;20198;-86
2022/01/13 14:03:02;;;;;;;6.33;5.73;;;;;;;;;;5114962;28;20194;-86
2022/01/13 14:05:39;;;;;;;9.00;6.77;;;;;;;;;;5115210;28;20195;-87
2022/01/13 14:08:09;;;;;;;10.50;8.30;;;;;;;;;;5115129;28;20202;-86
2022/01/13 14:10:37;;;;;;;6.23;5.57;;;;;;;;;;5115431;28;20241;-87
2022/01/13 14:13:06;;;;;;;7.37;5.90;;;;;;;;;;5115105;28;20639;-86
2022/01/13 14:15:34;;;;;;;7.73;6.50;;;;;;;;;;5115231;28;20202;-86
2022/01/13 14:18:14;;;;;;;6.73;5.70;;;;;;;;;;5115130;28;20668;-87
2022/01/13 14:20:44;;;;;;;13.23;9.87;;;;;;;;;;5115711;28;20192;-86
2022/01/13 14:23:20;;;;;;;15.13;10.83;;;;;;;;;;5114940;28;20656;-87
2022/01/13 14:25:49;;;;;;;12.43;9.27;;;;;;;;;;5115187;28;20233;-86
2022/01/13 14:28:26;;;;;;;34.30;23.13;;;;;;;;;;5115006;28;20195;-86
2022/01/13 14:31:01;;;;;;;17.10;12.80;;;;;;;;;;5114609;28;20195;-85
2022/01/13 14:33:30;;;;;;;14.20;11.43;;;;;;;;;;5114609;28;20207;-86
2022/01/13 14:36:06;;;;;;;10.47;8.53;;;;;;;;;;5114974;28;20200;-86
2022/01/13 14:38:40;;;;;;;13.20;9.87;;;;;;;;;;5114554;28;20189;-86
2022/01/13 14:41:08;;;;;;;12.37;10.13;;;;;;;;;;5114732;28;20186;-86
2022/01/13 14:43:36;;;;;;;12.13;9.97;;;;;;;;;;5114426;28;20725;-87
2022/01/13 14:46:09;;;;;;;15.07;10.73;;;;;;;;;;5114269;28;20227;-86
2022/01/13 14:48:39;;;;;;;10.53;7.83;;;;;;;;;;5114616;28;20183;-86
2022/01/13 14:51:07;;;;;;;12.80;8.63;;;;;;;;;;5114371;28;20628;-86
2022/01/13 14:53:35;;;;;;;29.70;17.47;;;;;;;;;;5113168;28;20219;-85
2022/01/13 14:56:06;;;;;;;14.53;10.43;;;;;;;;;;5114171;28;20232;-86
2022/01/13 14:58:34;;;;;;;12.50;8.33;;;;;;;;;;5114112;28;20187;-86
2022/01/13 15:01:02;;;;;;;11.47;7.53;;;;;;;;;;5114012;28;20195;-86
2022/01/13 15:03:29;;;;;;;11.97;9.17;;;;;;;;;;5121269;27;20293;-86
2022/01/13 15:05:57;;;;;;;13.20;10.00;;;;;;;;;;5126264;27;20290;-86
2022/01/13 15:08:26;;;;;;;13.73;8.97;;;;;;;;;;5114047;28;20192;-86
2022/01/13 15:10:53;;;;;;;11.30;8.07;;;;;;;;;;5113757;28;20191;-85
2022/01/13 15:13:22;;;;;;;9.70;8.25;;;;;;;;;;5113636;28;20195;-85